createdAt,value
2018-12-09T00:00:29.977Z,17.17
2018-12-09T00:02:58.080Z,22.33
2018-12-09T00:05:27.726Z,22.10
2018-12-09T00:07:55.823Z,18.75
2018-12-09T00:10:23.530Z,21.90
2018-12-09T00:12:53.287Z,17.75
2018-12-09T00:15:21.319Z,20.92
2018-12-09T00:17:51.150Z,19.95
2018-12-09T00:20:21.167Z,12.82
2018-12-09T00:22:50.658Z,12.02
2018-12-09T00:25:20.839Z,10.68
2018-12-09T00:27:50.401Z,12.23
2018-12-09T00:30:18.439Z,15.65
2018-12-09T00:32:46.510Z,10.45
2018-12-09T00:35:16.156Z,14.90
2018-12-09T00:37:44.197Z,9.07
2018-12-09T00:40:14.148Z,15.32
2018-12-09T00:42:43.930Z,15.15
2018-12-09T00:45:14.063Z,19.08
2018-12-09T00:47:42.607Z,14.45
2018-12-09T00:50:10.658Z,12.48
2018-12-09T00:52:40.724Z,15.98
2018-12-09T00:55:08.740Z,19.33
2018-12-09T00:57:36.774Z,15.25
2018-12-09T01:00:06.394Z,25.45
2018-12-09T01:02:36.302Z,17.12
2018-12-09T01:05:04.350Z,18.33
2018-12-09T01:07:32.411Z,19.62
2018-12-09T01:10:02.142Z,17.73
2018-12-09T01:12:30.172Z,15.80
2018-12-09T01:14:58.734Z,15.88
2018-12-09T01:17:26.766Z,17.85
2018-12-09T01:19:54.894Z,14.25
2018-12-09T01:22:22.938Z,17.80
2018-12-09T01:24:50.957Z,17.73
2018-12-09T01:27:20.614Z,20.25
2018-12-09T01:29:48.341Z,16.33
2018-12-09T01:32:16.392Z,14.40
2018-12-09T01:34:45.937Z,16.58
2018-12-09T01:37:13.950Z,20.10
2018-12-09T01:39:43.545Z,15.95
2018-12-09T01:42:13.230Z,20.48
2018-12-09T01:44:42.224Z,18.80
2018-12-09T01:47:12.127Z,11.52
2018-12-09T01:49:41.843Z,11.07
2018-12-09T01:52:11.451Z,17.23
2018-12-09T01:54:41.897Z,16.62
2018-12-09T01:57:09.631Z,9.93
2018-12-09T01:59:37.653Z,13.55
2018-12-09T02:02:05.680Z,16.73
2018-12-09T02:04:33.755Z,10.32
2018-12-09T02:07:01.787Z,12.15
2018-12-09T02:09:31.634Z,15.48
2018-12-09T02:11:59.380Z,11.77
2018-12-09T02:14:27.571Z,23.23
2018-12-09T02:16:57.131Z,15.10
2018-12-09T02:19:27.821Z,8.88
2018-12-09T02:21:57.371Z,7.95
2018-12-09T02:24:26.945Z,20.70
2018-12-09T02:26:54.916Z,14.52
2018-12-09T02:29:22.985Z,14.87
2018-12-09T02:31:51.051Z,11.85
2018-12-09T02:34:19.128Z,19.85
2018-12-09T02:36:47.186Z,11.80
2018-12-09T02:39:15.018Z,14.50
2018-12-09T02:41:42.969Z,18.40
2018-12-09T02:44:13.927Z,17.33
2018-12-09T02:46:43.254Z,12.48
2018-12-09T02:49:14.035Z,12.15
2018-12-09T02:51:43.363Z,11.50
2018-12-09T02:54:11.435Z,11.48
2018-12-09T02:56:39.659Z,13.23
2018-12-09T02:59:09.344Z,11.32
2018-12-09T03:01:39.002Z,10.90
2018-12-09T03:04:07.037Z,12.35
2018-12-09T03:06:35.058Z,10.32
2018-12-09T03:09:03.147Z,10.70
2018-12-09T03:11:32.670Z,22.92
2018-12-09T03:14:00.840Z,20.17
2018-12-09T03:16:29.528Z,16.30
2018-12-09T03:18:57.575Z,6.95
2018-12-09T03:21:25.569Z,8.80
2018-12-09T03:23:53.956Z,10.30
2018-12-09T03:26:23.560Z,11.23
2018-12-09T03:28:51.657Z,8.90
2018-12-09T03:31:19.609Z,10.77
2018-12-09T03:33:49.084Z,9.30
2018-12-09T03:36:17.102Z,11.07
2018-12-09T03:38:45.178Z,9.77
2018-12-09T03:41:12.917Z,10.85
2018-12-09T03:43:42.219Z,9.90
2018-12-09T03:46:09.924Z,8.77
2018-12-09T03:48:37.650Z,11.65
2018-12-09T03:51:06.938Z,14.80
2018-12-09T03:53:35.136Z,11.85
2018-12-09T03:56:04.404Z,11.38
2018-12-09T03:58:32.374Z,9.20
2018-12-09T04:01:03.559Z,8.90
2018-12-09T04:03:35.100Z,11.77
2018-12-09T04:06:03.133Z,12.55
2018-12-09T04:08:32.963Z,11.27
2018-12-09T04:11:03.272Z,11.02
2018-12-09T04:13:32.923Z,10.32
2018-12-09T04:16:00.669Z,11.10
2018-12-09T04:18:30.142Z,10.13
2018-12-09T04:20:58.216Z,11.68
2018-12-09T04:23:28.016Z,7.70
2018-12-09T04:25:56.019Z,10.50
2018-12-09T04:28:24.041Z,8.95
2018-12-09T04:30:52.094Z,12.73
2018-12-09T04:33:19.822Z,10.93
2018-12-09T04:35:47.789Z,9.90
2018-12-09T04:38:17.615Z,14.32
2018-12-09T04:40:45.561Z,14.75
2018-12-09T04:43:13.562Z,16.12
2018-12-09T04:45:43.722Z,15.55
2018-12-09T04:48:11.700Z,15.05
2018-12-09T04:50:41.256Z,17.45
2018-12-09T04:53:09.510Z,21.98
2018-12-09T04:55:37.501Z,10.93
2018-12-09T04:58:05.545Z,11.20
2018-12-09T05:00:57.151Z,11.98
2018-12-09T05:03:26.457Z,16.00
2018-12-09T05:05:54.536Z,12.70
2018-12-09T05:08:22.905Z,18.45
2018-12-09T05:10:52.232Z,18.10
2018-12-09T05:13:21.710Z,15.40
2018-12-09T05:15:51.633Z,18.40
2018-12-09T05:18:21.257Z,12.77
2018-12-09T05:20:49.278Z,21.95
2018-12-09T05:23:18.649Z,16.20
2018-12-09T05:25:47.257Z,17.73
2018-12-09T05:28:15.949Z,15.75
2018-12-09T05:30:45.127Z,22.10
2018-12-09T05:33:13.858Z,10.23
2018-12-09T05:35:43.363Z,20.27
2018-12-09T05:38:13.107Z,18.02
2018-12-09T05:40:42.702Z,17.15
2018-12-09T05:43:10.731Z,18.37
2018-12-09T05:45:38.662Z,13.82
2018-12-09T05:48:09.288Z,14.32
2018-12-09T05:50:38.850Z,18.48
2018-12-09T05:53:08.602Z,16.83
2018-12-09T05:55:36.649Z,21.50
2018-12-09T05:58:06.256Z,17.77
2018-12-09T06:00:35.789Z,23.80
2018-12-09T06:03:03.814Z,16.40
2018-12-09T06:05:33.468Z,19.40
2018-12-09T06:08:03.134Z,22.83
2018-12-09T06:10:32.415Z,16.70
2018-12-09T06:13:01.970Z,14.77
2018-12-09T06:15:30.362Z,9.13
2018-12-09T06:17:58.405Z,17.17
2018-12-09T06:20:26.407Z,14.00
2018-12-09T06:22:54.743Z,19.35
2018-12-09T06:25:22.747Z,9.85
2018-12-09T06:27:52.308Z,16.95
2018-12-09T06:30:20.984Z,15.07
2018-12-09T06:32:48.980Z,13.35
2018-12-09T06:35:17.036Z,15.68
2018-12-09T06:37:45.088Z,9.35
2018-12-09T06:40:14.299Z,15.38
2018-12-09T06:42:42.309Z,10.63
2018-12-09T06:45:11.636Z,14.85
2018-12-09T06:47:39.336Z,18.05
2018-12-09T06:50:08.750Z,11.85
2018-12-09T06:52:38.526Z,13.62
2018-12-09T06:55:08.703Z,12.40
2018-12-09T06:57:36.654Z,14.38
2018-12-09T07:00:07.488Z,10.38
2018-12-09T07:02:35.520Z,17.45
2018-12-09T07:05:03.552Z,22.92
2018-12-09T07:07:33.149Z,17.58
2018-12-09T07:10:02.892Z,20.48
2018-12-09T07:12:30.595Z,13.95
2018-12-09T07:15:00.450Z,25.85
2018-12-09T07:17:30.025Z,12.20
2018-12-09T07:19:59.541Z,16.33
2018-12-09T07:22:27.835Z,21.80
2018-12-09T07:24:57.140Z,18.62
2018-12-09T07:27:25.163Z,13.10
2018-12-09T07:30:01.905Z,15.88
2018-12-09T07:32:24.382Z,14.70
2018-12-09T07:34:54.007Z,16.37
2018-12-09T07:37:21.705Z,15.88
2018-12-09T07:39:50.971Z,16.77
2018-12-09T07:42:20.595Z,10.52
2018-12-09T07:44:48.327Z,16.40
2018-12-09T07:47:17.847Z,22.90
2018-12-09T07:49:47.391Z,13.35
2018-12-09T07:52:15.608Z,15.18
2018-12-09T07:54:43.634Z,10.75
2018-12-09T07:57:13.225Z,15.20
2018-12-09T07:59:41.243Z,12.55
2018-12-09T08:02:10.793Z,16.35
2018-12-09T08:04:40.126Z,13.80
2018-12-09T08:07:09.735Z,11.75
2018-12-09T08:09:37.481Z,16.83
2018-12-09T08:12:07.072Z,11.85
2018-12-09T08:14:35.100Z,14.35
2018-12-09T08:17:02.809Z,10.52
2018-12-09T08:19:30.520Z,12.45
2018-12-09T08:22:00.308Z,12.25
2018-12-09T08:24:28.354Z,11.93
2018-12-09T08:26:56.411Z,14.23
2018-12-09T08:29:26.299Z,15.18
2018-12-09T08:31:54.303Z,13.40
2018-12-09T08:34:22.315Z,16.10
2018-12-09T08:36:50.534Z,16.70
2018-12-09T08:39:18.528Z,15.02
2018-12-09T08:41:46.490Z,16.37
2018-12-09T08:44:15.987Z,13.13
2018-12-09T08:46:43.971Z,16.85
2018-12-09T08:49:11.965Z,18.75
2018-12-09T08:51:41.544Z,12.60
2018-12-09T08:54:11.139Z,11.93
2018-12-09T08:56:38.834Z,11.65
2018-12-09T08:59:08.476Z,19.02
2018-12-09T09:01:36.468Z,14.80
2018-12-09T09:04:04.484Z,12.05
2018-12-09T09:06:32.637Z,10.73
2018-12-09T09:09:00.338Z,11.98
2018-12-09T09:11:30.001Z,14.10
2018-12-09T09:13:58.175Z,11.82
2018-12-09T09:16:27.781Z,14.40
2018-12-09T09:18:55.809Z,11.50
2018-12-09T09:21:23.876Z,11.10
2018-12-09T09:23:51.945Z,7.70
2018-12-09T09:26:22.014Z,6.15
2018-12-09T09:28:51.993Z,3.05
2018-12-09T09:31:21.541Z,2.10
2018-12-09T09:33:51.019Z,4.97
2018-12-09T09:36:19.317Z,2.60
2018-12-09T09:38:47.317Z,3.58
2018-12-09T09:41:15.051Z,3.72
2018-12-09T09:43:43.268Z,2.83
2018-12-09T09:46:12.839Z,4.75
2018-12-09T09:48:42.423Z,4.03
2018-12-09T09:51:11.046Z,3.80
2018-12-09T09:53:39.066Z,2.15
2018-12-09T09:56:08.688Z,2.10
2018-12-09T09:58:38.335Z,3.12
2018-12-09T10:01:06.384Z,2.90
2018-12-09T10:03:34.344Z,3.53
2018-12-09T10:06:03.026Z,3.40
2018-12-09T10:08:31.598Z,4.40
2018-12-09T10:11:01.221Z,1.40
2018-12-09T10:13:29.335Z,4.90
2018-12-09T10:15:57.938Z,1.27
2018-12-09T10:18:27.560Z,3.45
2018-12-09T10:20:55.583Z,1.45
2018-12-09T10:23:23.619Z,1.92
2018-12-09T10:25:53.105Z,1.77
2018-12-09T10:28:20.831Z,2.50
2018-12-09T10:30:49.317Z,2.00
2018-12-09T10:33:17.361Z,1.00
2018-12-09T10:35:47.112Z,3.05
2018-12-09T10:38:16.652Z,7.75
2018-12-09T10:40:46.262Z,4.90
2018-12-09T10:43:14.311Z,2.62
2018-12-09T10:45:43.826Z,4.55
2018-12-09T10:48:13.475Z,3.05
2018-12-09T10:50:41.527Z,5.50
2018-12-09T10:53:09.527Z,4.07
2018-12-09T10:55:38.794Z,5.03
2018-12-09T10:58:06.781Z,2.62
2018-12-09T11:01:08.196Z,5.28
2018-12-09T11:03:36.216Z,3.35
2018-12-09T11:06:04.170Z,4.05
2018-12-09T11:08:32.151Z,3.67
2018-12-09T11:11:00.179Z,2.25
2018-12-09T11:13:29.688Z,3.10
2018-12-09T11:15:58.001Z,3.05
2018-12-09T11:18:26.061Z,3.00
2018-12-09T11:20:54.066Z,5.80
2018-12-09T11:23:22.069Z,2.92
2018-12-09T11:25:51.336Z,7.85
2018-12-09T11:28:19.371Z,5.05
2018-12-09T11:30:47.383Z,2.37
2018-12-09T11:33:16.134Z,6.90
2018-12-09T11:35:44.171Z,4.93
2018-12-09T11:38:13.715Z,5.57
2018-12-09T11:40:42.206Z,7.22
2018-12-09T11:43:10.177Z,4.87
2018-12-09T11:45:38.185Z,4.20
2018-12-09T11:48:06.209Z,5.82
2018-12-09T11:50:34.220Z,6.20
2018-12-09T11:53:02.188Z,7.30
2018-12-09T11:55:29.986Z,7.72
2018-12-09T11:57:57.681Z,7.25
2018-12-09T12:00:27.267Z,10.70
2018-12-09T12:02:55.325Z,7.87
2018-12-09T12:05:23.318Z,9.82
2018-12-09T12:07:51.358Z,8.00
2018-12-09T12:10:19.173Z,4.20
2018-12-09T12:12:48.445Z,5.12
2018-12-09T12:15:18.018Z,3.28
2018-12-09T12:17:47.754Z,4.35
2018-12-09T12:20:16.352Z,3.35
2018-12-09T12:22:44.368Z,5.45
2018-12-09T12:25:13.917Z,5.70
2018-12-09T12:27:43.603Z,10.65
2018-12-09T12:30:13.127Z,8.35
2018-12-09T12:32:42.519Z,4.72
2018-12-09T12:35:10.274Z,6.60
2018-12-09T12:37:39.790Z,6.60
2018-12-09T12:40:09.832Z,10.68
2018-12-09T12:42:39.111Z,8.65
2018-12-09T12:45:07.110Z,7.75
2018-12-09T12:47:36.395Z,5.03
2018-12-09T12:50:04.861Z,8.13
2018-12-09T12:52:34.104Z,8.65
2018-12-09T12:55:01.881Z,9.90
2018-12-09T12:57:29.877Z,6.10
2018-12-09T12:59:57.869Z,5.53
2018-12-09T13:02:25.596Z,8.55
2018-12-09T13:04:53.312Z,7.78
2018-12-09T13:07:21.305Z,5.05
2018-12-09T13:09:50.890Z,7.18
2018-12-09T13:12:18.908Z,5.80
2018-12-09T13:14:46.984Z,11.50
2018-12-09T13:17:16.497Z,8.57
2018-12-09T13:19:44.537Z,8.93
2018-12-09T13:22:14.092Z,10.82
2018-12-09T13:24:42.142Z,5.95
2018-12-09T13:27:09.921Z,8.23
2018-12-09T13:29:37.636Z,5.43
2018-12-09T13:32:07.316Z,8.98
2018-12-09T13:34:35.339Z,8.65
2018-12-09T13:37:04.866Z,11.93
2018-12-09T13:39:32.941Z,11.12
2018-12-09T13:42:01.258Z,10.75
2018-12-09T13:44:29.277Z,9.98
2018-12-09T13:46:57.317Z,10.75
2018-12-09T13:49:25.092Z,7.32
2018-12-09T13:51:54.419Z,6.50
2018-12-09T13:54:22.815Z,7.50
2018-12-09T13:56:51.463Z,8.02
2018-12-09T13:59:19.748Z,9.13
2018-12-09T14:01:48.977Z,5.35
2018-12-09T14:04:16.701Z,3.28
2018-12-09T14:06:46.752Z,8.18
2018-12-09T14:09:16.249Z,6.78
2018-12-09T14:11:44.259Z,7.28
2018-12-09T14:14:12.253Z,8.52
2018-12-09T14:16:41.949Z,7.70
2018-12-09T14:19:12.083Z,7.12
2018-12-09T14:21:41.502Z,8.63
2018-12-09T14:24:11.020Z,12.63
2018-12-09T14:26:40.642Z,13.75
2018-12-09T14:29:10.427Z,8.27
2018-12-09T14:31:38.434Z,9.43
2018-12-09T14:34:06.380Z,9.40
2018-12-09T14:36:36.209Z,12.35
2018-12-09T14:39:05.782Z,8.48
2018-12-09T14:41:34.432Z,7.10
2018-12-09T14:44:03.030Z,4.12
2018-12-09T14:46:32.739Z,8.00
2018-12-09T14:49:00.421Z,6.25
2018-12-09T14:51:29.737Z,7.90
2018-12-09T14:53:59.363Z,6.32
2018-12-09T14:56:27.120Z,7.75
2018-12-09T14:58:55.146Z,6.43
2018-12-09T15:01:23.869Z,6.10
2018-12-09T15:03:53.369Z,5.75
2018-12-09T15:06:21.977Z,4.82
2018-12-09T15:08:52.236Z,6.65
2018-12-09T15:11:20.275Z,3.92
2018-12-09T15:13:48.352Z,7.70
2018-12-09T15:16:16.404Z,9.48
2018-12-09T15:18:44.462Z,5.75
2018-12-09T15:21:12.479Z,8.30
2018-12-09T15:23:40.541Z,5.07
2018-12-09T15:26:10.092Z,11.40
2018-12-09T15:28:37.813Z,9.70
2018-12-09T15:31:07.403Z,7.22
2018-12-09T15:33:36.898Z,10.48
2018-12-09T15:36:04.608Z,15.20
2018-12-09T15:38:34.157Z,9.70
2018-12-09T15:41:03.992Z,15.88
2018-12-09T15:43:31.991Z,11.68
2018-12-09T15:45:59.997Z,11.95
2018-12-09T15:48:29.535Z,15.18
2018-12-09T15:50:59.130Z,7.97
2018-12-09T15:53:28.357Z,10.52
2018-12-09T15:55:56.385Z,6.18
2018-12-09T15:58:24.378Z,5.93
2018-12-09T16:00:55.811Z,5.50
2018-12-09T16:03:23.903Z,7.45
2018-12-09T16:05:52.448Z,6.07
2018-12-09T16:08:22.400Z,8.30
2018-12-09T16:10:52.082Z,7.65
2018-12-09T16:13:21.395Z,7.15
2018-12-09T16:15:50.706Z,10.93
2018-12-09T16:18:19.689Z,7.62
2018-12-09T16:20:47.739Z,8.57
2018-12-09T16:23:17.280Z,11.05
2018-12-09T16:25:46.825Z,6.07
2018-12-09T16:28:14.860Z,5.12
2018-12-09T16:30:43.344Z,11.48
2018-12-09T16:33:11.923Z,10.15
2018-12-09T16:35:39.960Z,8.52
2018-12-09T16:38:09.862Z,4.37
2018-12-09T16:40:39.391Z,6.72
2018-12-09T16:43:07.131Z,4.72
2018-12-09T16:45:35.145Z,6.37
2018-12-09T16:48:03.143Z,6.62
2018-12-09T16:50:31.194Z,4.72
2018-12-09T16:52:59.222Z,2.75
2018-12-09T16:55:26.914Z,3.28
2018-12-09T16:57:54.652Z,6.05
2018-12-09T17:00:24.348Z,5.18
2018-12-09T17:02:52.319Z,3.05
2018-12-09T17:05:21.976Z,10.13
2018-12-09T17:07:51.807Z,9.43
2018-12-09T17:10:20.383Z,6.43
2018-12-09T17:12:48.375Z,9.32
2018-12-09T17:15:16.391Z,8.18
2018-12-09T17:17:45.896Z,5.53
2018-12-09T17:20:13.853Z,6.87
2018-12-09T17:22:41.876Z,5.43
2018-12-09T17:25:09.829Z,9.63
2018-12-09T17:27:39.418Z,13.10
2018-12-09T17:30:07.984Z,17.10
2018-12-09T17:32:37.582Z,10.60
2018-12-09T17:35:07.141Z,9.93
2018-12-09T17:37:34.980Z,16.48
2018-12-09T17:40:04.555Z,12.27
2018-12-09T17:42:32.562Z,14.93
2018-12-09T17:45:02.170Z,13.20
2018-12-09T17:47:30.168Z,13.27
2018-12-09T17:49:58.688Z,9.07
2018-12-09T17:52:28.381Z,10.02
2018-12-09T17:54:56.175Z,11.98
2018-12-09T17:57:25.170Z,11.10
2018-12-09T17:59:54.487Z,11.68
2018-12-09T18:02:23.065Z,13.32
2018-12-09T18:04:51.684Z,12.57
2018-12-09T18:07:19.716Z,13.15
2018-12-09T18:09:47.720Z,16.37
2018-12-09T18:12:16.327Z,18.92
2018-12-09T18:14:44.424Z,13.30
2018-12-09T18:17:12.422Z,14.93
2018-12-09T18:19:40.400Z,14.93
2018-12-09T18:22:10.072Z,16.87
2018-12-09T18:24:39.605Z,17.35
2018-12-09T18:27:07.620Z,12.18
2018-12-09T18:29:37.292Z,17.30
2018-12-09T18:32:05.325Z,14.15
2018-12-09T18:34:33.302Z,13.45
2018-12-09T18:37:01.878Z,12.98
2018-12-09T18:39:29.609Z,14.18
2018-12-09T18:41:57.613Z,10.60
2018-12-09T18:44:26.034Z,8.25
2018-12-09T18:46:55.347Z,10.07
2018-12-09T18:49:23.873Z,9.35
2018-12-09T18:51:53.209Z,7.62
2018-12-09T18:54:21.485Z,12.65
2018-12-09T18:56:49.447Z,11.85
2018-12-09T18:59:19.547Z,11.82
2018-12-09T19:01:48.843Z,10.15
2018-12-09T19:04:16.845Z,9.35
2018-12-09T19:06:44.913Z,9.13
2018-12-09T19:09:14.616Z,12.48
2018-12-09T19:11:44.321Z,6.55
2018-12-09T19:14:13.843Z,10.23
2018-12-09T19:16:43.540Z,9.50
2018-12-09T19:19:13.238Z,15.00
2018-12-09T19:21:42.591Z,12.27
2018-12-09T19:24:10.320Z,12.25
2018-12-09T19:26:40.029Z,8.70
2018-12-09T19:29:08.536Z,8.25
2018-12-09T19:31:36.593Z,17.83
2018-12-09T19:34:06.165Z,10.63
2018-12-09T19:36:34.236Z,11.10
2018-12-09T19:39:02.256Z,12.18
2018-12-09T19:41:30.555Z,11.18
2018-12-09T19:44:00.096Z,14.45
2018-12-09T19:46:28.729Z,12.98
2018-12-09T19:48:56.758Z,9.85
2018-12-09T19:51:24.843Z,11.93
2018-12-09T19:53:52.603Z,10.52
2018-12-09T19:56:22.392Z,5.72
2018-12-09T19:58:51.945Z,15.60
2018-12-09T20:01:19.979Z,7.32
2018-12-09T20:03:48.018Z,9.90
2018-12-09T20:06:17.972Z,10.05
2018-12-09T20:08:46.041Z,10.68
2018-12-09T20:11:14.039Z,8.35
2018-12-09T20:13:44.094Z,13.82
2018-12-09T20:16:13.731Z,7.50
2018-12-09T20:18:41.728Z,7.50
2018-12-09T20:21:09.967Z,12.05
2018-12-09T20:23:39.377Z,8.20
2018-12-09T20:26:07.378Z,8.77
2018-12-09T20:28:35.759Z,14.90
2018-12-09T20:31:03.808Z,8.90
2018-12-09T20:33:33.078Z,13.35
2018-12-09T20:36:01.256Z,6.75
2018-12-09T20:38:29.255Z,11.40
2018-12-09T20:40:58.518Z,10.95
2018-12-09T20:43:26.774Z,9.93
2018-12-09T20:45:54.806Z,7.57
2018-12-09T20:48:23.232Z,9.50
2018-12-09T20:50:51.666Z,8.27
2018-12-09T20:53:19.660Z,7.18
2018-12-09T20:55:47.755Z,12.35
2018-12-09T20:58:17.492Z,10.35
2018-12-09T21:00:45.352Z,12.90
2018-12-09T21:03:13.262Z,9.75
2018-12-09T21:05:41.327Z,7.85
2018-12-09T21:08:09.363Z,9.13
2018-12-09T21:10:39.092Z,9.73
2018-12-09T21:13:07.448Z,8.75
2018-12-09T21:15:37.165Z,10.88
2018-12-09T21:18:06.678Z,12.85
2018-12-09T21:20:34.777Z,10.75
2018-12-09T21:23:04.471Z,7.55
2018-12-09T21:25:32.510Z,10.68
2018-12-09T21:28:02.133Z,10.30
2018-12-09T21:30:31.591Z,12.95
2018-12-09T21:33:01.344Z,11.00
2018-12-09T21:35:31.287Z,15.25
2018-12-09T21:37:59.346Z,12.15
2018-12-09T21:40:27.404Z,12.65
2018-12-09T21:42:55.587Z,11.50
2018-12-09T21:45:23.610Z,13.32
2018-12-09T21:47:51.388Z,10.00
2018-12-09T21:50:21.436Z,11.40
2018-12-09T21:52:51.053Z,12.45
2018-12-09T21:55:21.327Z,8.00
2018-12-09T21:57:50.527Z,7.35
2018-12-09T22:00:18.623Z,10.52
2018-12-09T22:02:48.204Z,8.88
2018-12-09T22:05:16.362Z,10.80
2018-12-09T22:07:46.037Z,7.70
2018-12-09T22:10:14.087Z,11.05
2018-12-09T22:12:42.082Z,5.57
2018-12-09T22:15:11.666Z,7.75
2018-12-09T22:17:39.736Z,8.90
2018-12-09T22:20:07.514Z,9.75
2018-12-09T22:22:37.135Z,5.40
2018-12-09T22:25:06.827Z,7.80
2018-12-09T22:27:36.814Z,8.32
2018-12-09T22:30:05.043Z,6.05
2018-12-09T22:32:33.101Z,8.52
2018-12-09T22:35:02.688Z,12.88
2018-12-09T22:37:32.438Z,9.38
2018-12-09T22:40:02.027Z,6.72
2018-12-09T22:42:30.120Z,11.18
2018-12-09T22:44:59.567Z,18.77
2018-12-09T22:47:29.083Z,10.27
2018-12-09T22:49:58.857Z,10.68
2018-12-09T22:52:26.567Z,14.63
2018-12-09T22:54:54.581Z,12.68
2018-12-09T22:57:22.689Z,11.75
2018-12-09T22:59:50.703Z,11.15
2018-12-09T23:02:36.229Z,16.12
2018-12-09T23:05:04.260Z,13.43
2018-12-09T23:07:49.989Z,11.45
2018-12-09T23:10:18.560Z,11.93
2018-12-09T23:12:48.103Z,9.35
2018-12-09T23:15:16.397Z,10.63
2018-12-09T23:17:44.467Z,9.70
2018-12-09T23:20:14.066Z,11.00
2018-12-09T23:22:44.019Z,11.32
2018-12-09T23:25:11.825Z,12.52
2018-12-09T23:27:39.876Z,15.93
2018-12-09T23:30:10.644Z,8.85
2018-12-09T23:32:38.806Z,11.25
2018-12-09T23:35:07.321Z,7.20
2018-12-09T23:37:37.215Z,10.13
2018-12-09T23:40:07.880Z,7.47
2018-12-09T23:42:35.984Z,7.62
2018-12-09T23:45:06.956Z,11.18
2018-12-09T23:47:35.248Z,10.98
2018-12-09T23:50:03.326Z,10.80
2018-12-09T23:52:33.074Z,4.78
2018-12-09T23:55:02.291Z,9.70
2018-12-09T23:57:31.977Z,8.65
